createdAt,value
2018-03-30T00:03:00.000Z,98255
2018-03-30T00:08:00.000Z,98248
2018-03-30T00:13:00.000Z,98242
2018-03-30T00:19:00.000Z,98238
2018-03-30T00:24:00.000Z,98241
2018-03-30T00:29:00.000Z,98247
2018-03-30T00:34:00.000Z,98250
2018-03-30T00:39:00.000Z,98258
2018-03-30T00:44:00.000Z,98281
2018-03-30T00:49:00.000Z,98287
2018-03-30T00:54:00.000Z,98286
2018-03-30T00:59:00.000Z,98282
2018-03-30T01:04:00.000Z,98271
2018-03-30T01:09:00.000Z,98268
2018-03-30T01:14:00.000Z,98269
2018-03-30T01:19:00.000Z,98263
2018-03-30T01:24:00.000Z,98254
2018-03-30T01:29:00.000Z,98244
2018-03-30T01:34:00.000Z,98238
2018-03-30T01:39:00.000Z,98237
2018-03-30T01:44:00.000Z,98228
2018-03-30T01:49:00.000Z,98234
2018-03-30T01:54:00.000Z,98233
2018-03-30T01:59:00.000Z,98229
2018-03-30T02:04:00.000Z,98217
2018-03-30T02:09:00.000Z,98221
2018-03-30T02:14:00.000Z,98207
2018-03-30T02:19:00.000Z,98210
2018-03-30T02:24:00.000Z,98208
2018-03-30T02:29:00.000Z,98220
2018-03-30T02:34:00.000Z,98205
2018-03-30T02:39:00.000Z,98211
2018-03-30T02:44:00.000Z,98217
2018-03-30T02:49:00.000Z,98237
2018-03-30T02:54:00.000Z,98237
2018-03-30T02:59:00.000Z,98245
2018-03-30T03:04:00.000Z,98250
2018-03-30T03:09:00.000Z,98241
2018-03-30T03:14:00.000Z,98224
2018-03-30T03:19:00.000Z,98225
2018-03-30T03:24:00.000Z,98216
2018-03-30T03:29:00.000Z,98218
2018-03-30T03:34:00.000Z,98200
2018-03-30T03:39:00.000Z,98206
2018-03-30T03:44:00.000Z,98201
2018-03-30T03:49:00.000Z,98184
2018-03-30T03:54:00.000Z,98188
2018-03-30T03:59:00.000Z,98191
2018-03-30T04:04:00.000Z,98210
2018-03-30T04:09:00.000Z,98211
2018-03-30T04:14:00.000Z,98218
2018-03-30T04:19:00.000Z,98218
2018-03-30T04:24:00.000Z,98235
2018-03-30T04:29:00.000Z,98231
2018-03-30T04:34:00.000Z,98228
2018-03-30T04:39:00.000Z,98217
2018-03-30T04:44:00.000Z,98211
2018-03-30T04:49:00.000Z,98205
2018-03-30T04:54:00.000Z,98198
2018-03-30T04:59:00.000Z,98191
2018-03-30T05:04:00.000Z,98213
2018-03-30T05:09:00.000Z,98208
2018-03-30T05:14:00.000Z,98215
2018-03-30T05:19:00.000Z,98221
2018-03-30T05:24:00.000Z,98206
2018-03-30T05:29:00.000Z,98207
2018-03-30T05:34:00.000Z,98212
2018-03-30T05:39:00.000Z,98216
2018-03-30T05:44:00.000Z,98210
2018-03-30T05:49:00.000Z,98214
2018-03-30T05:54:00.000Z,98200
2018-03-30T05:59:00.000Z,98212
2018-03-30T06:04:00.000Z,98199
2018-03-30T06:09:00.000Z,98191
2018-03-30T06:14:00.000Z,98189
2018-03-30T06:19:00.000Z,98187
2018-03-30T06:25:00.000Z,98190
2018-03-30T06:30:00.000Z,98198
2018-03-30T06:35:00.000Z,98213
2018-03-30T06:40:00.000Z,98214
2018-03-30T06:45:00.000Z,98217
2018-03-30T06:50:00.000Z,98215
2018-03-30T06:55:00.000Z,98212
2018-03-30T07:00:00.000Z,98214
2018-03-30T07:05:00.000Z,98200
2018-03-30T07:10:00.000Z,98193
2018-03-30T07:15:00.000Z,98210
2018-03-30T07:20:00.000Z,98209
2018-03-30T07:25:00.000Z,98193
2018-03-30T07:30:00.000Z,98198
2018-03-30T07:35:00.000Z,98199
2018-03-30T07:40:00.000Z,98195
2018-03-30T07:45:00.000Z,98195
2018-03-30T07:50:00.000Z,98190
2018-03-30T07:55:00.000Z,98185
2018-03-30T08:00:00.000Z,98192
2018-03-30T08:05:00.000Z,98191
2018-03-30T08:10:00.000Z,98195
2018-03-30T08:15:00.000Z,98188
2018-03-30T08:20:00.000Z,98188
2018-03-30T08:25:00.000Z,98177
2018-03-30T08:30:00.000Z,98184
2018-03-30T08:35:00.000Z,98186
2018-03-30T08:40:00.000Z,98187
2018-03-30T08:45:00.000Z,98187
2018-03-30T08:50:00.000Z,98180
2018-03-30T08:55:00.000Z,98181
2018-03-30T09:00:00.000Z,98172
2018-03-30T09:05:00.000Z,98159
2018-03-30T09:10:00.000Z,98160
2018-03-30T09:15:00.000Z,98154
2018-03-30T09:20:00.000Z,98149
2018-03-30T09:25:00.000Z,98155
2018-03-30T09:30:00.000Z,98165
2018-03-30T09:35:00.000Z,98155
2018-03-30T09:40:00.000Z,98148
2018-03-30T09:45:00.000Z,98146
2018-03-30T09:50:00.000Z,98149
2018-03-30T09:55:00.000Z,98126
2018-03-30T10:00:00.000Z,98114
2018-03-30T10:05:00.000Z,98110
2018-03-30T10:10:00.000Z,98105
2018-03-30T10:15:00.000Z,98100
2018-03-30T10:20:00.000Z,98083
2018-03-30T10:25:00.000Z,98068
2018-03-30T10:30:00.000Z,98080
2018-03-30T10:35:00.000Z,98073
2018-03-30T10:40:00.000Z,98071
2018-03-30T10:45:00.000Z,98071
2018-03-30T10:50:00.000Z,98058
2018-03-30T10:55:00.000Z,98031
2018-03-30T11:00:00.000Z,98031
2018-03-30T11:05:00.000Z,98009
2018-03-30T11:10:00.000Z,98010
2018-03-30T11:15:00.000Z,98025
2018-03-30T11:20:00.000Z,97997
2018-03-30T11:25:00.000Z,97980
2018-03-30T11:30:00.000Z,97987
2018-03-30T11:35:00.000Z,97985
2018-03-30T11:40:00.000Z,97977
2018-03-30T11:45:00.000Z,97962
2018-03-30T11:50:00.000Z,97968
2018-03-30T11:55:00.000Z,97952
2018-03-30T12:00:00.000Z,97953
2018-03-30T12:05:00.000Z,97944
2018-03-30T12:10:00.000Z,97936
2018-03-30T12:15:00.000Z,97929
2018-03-30T12:20:00.000Z,97919
2018-03-30T12:25:00.000Z,97912
2018-03-30T12:31:00.000Z,97900
2018-03-30T12:36:00.000Z,97881
2018-03-30T12:41:00.000Z,97870
2018-03-30T12:46:00.000Z,97853
2018-03-30T12:51:00.000Z,97846
2018-03-30T12:56:00.000Z,97838
2018-03-30T13:01:00.000Z,97823
2018-03-30T13:06:00.000Z,97828
2018-03-30T13:11:00.000Z,97789
2018-03-30T13:16:00.000Z,97783
2018-03-30T13:21:00.000Z,97779
2018-03-30T13:26:00.000Z,97769
2018-03-30T13:31:00.000Z,97771
2018-03-30T13:36:00.000Z,97755
2018-03-30T13:41:00.000Z,97741
2018-03-30T13:46:00.000Z,97749
2018-03-30T13:51:00.000Z,97721
2018-03-30T13:56:00.000Z,97731
2018-03-30T14:01:00.000Z,97727
2018-03-30T14:06:00.000Z,97716
2018-03-30T14:11:00.000Z,97707
2018-03-30T14:16:00.000Z,97696
2018-03-30T14:21:00.000Z,97689
2018-03-30T14:26:00.000Z,97674
2018-03-30T14:31:00.000Z,97657
2018-03-30T14:36:00.000Z,97653
2018-03-30T14:41:00.000Z,97644
2018-03-30T14:46:00.000Z,97639
2018-03-30T14:51:00.000Z,97637
2018-03-30T14:56:00.000Z,97615
2018-03-30T15:01:00.000Z,97609
2018-03-30T15:06:00.000Z,97614
2018-03-30T15:11:00.000Z,97607
2018-03-30T15:16:00.000Z,97596
2018-03-30T15:21:00.000Z,97584
2018-03-30T15:26:00.000Z,97577
2018-03-30T15:31:00.000Z,97570
2018-03-30T15:36:00.000Z,97573
2018-03-30T15:41:00.000Z,97565
2018-03-30T15:46:00.000Z,97558
2018-03-30T15:51:00.000Z,97543
2018-03-30T15:56:00.000Z,97558
2018-03-30T16:01:00.000Z,97554
2018-03-30T16:06:00.000Z,97558
2018-03-30T16:11:00.000Z,97540
2018-03-30T16:16:00.000Z,97525
2018-03-30T16:21:00.000Z,97536
2018-03-30T16:26:00.000Z,97521
2018-03-30T16:31:00.000Z,97539
2018-03-30T16:36:00.000Z,97523
2018-03-30T16:41:00.000Z,97523
2018-03-30T16:46:00.000Z,97531
2018-03-30T16:51:00.000Z,97509
2018-03-30T16:56:00.000Z,97513
2018-03-30T17:01:00.000Z,97511
2018-03-30T17:06:00.000Z,97504
2018-03-30T17:11:00.000Z,97491
2018-03-30T17:16:00.000Z,97482
2018-03-30T17:21:00.000Z,97508
2018-03-30T17:26:00.000Z,97499
2018-03-30T17:31:00.000Z,97494
2018-03-30T17:36:00.000Z,97495
2018-03-30T17:41:00.000Z,97494
2018-03-30T17:46:00.000Z,97509
2018-03-30T17:51:00.000Z,97508
2018-03-30T17:56:00.000Z,97519
2018-03-30T18:01:00.000Z,97508
2018-03-30T18:06:00.000Z,97515
2018-03-30T18:11:00.000Z,97508
2018-03-30T18:16:00.000Z,97521
2018-03-30T18:21:00.000Z,97503
2018-03-30T18:26:00.000Z,97507
2018-03-30T18:31:00.000Z,97519
2018-03-30T18:36:00.000Z,97514
2018-03-30T18:41:00.000Z,97496
2018-03-30T18:47:00.000Z,97498
2018-03-30T18:52:00.000Z,97508
2018-03-30T18:57:00.000Z,97514
2018-03-30T19:02:00.000Z,97501
2018-03-30T19:07:00.000Z,97517
2018-03-30T19:12:00.000Z,97500
2018-03-30T19:17:00.000Z,97504
2018-03-30T19:22:00.000Z,97484
2018-03-30T19:27:00.000Z,97491
2018-03-30T19:32:00.000Z,97494
2018-03-30T19:37:00.000Z,97498
2018-03-30T19:42:00.000Z,97487
2018-03-30T19:47:00.000Z,97480
2018-03-30T19:52:00.000Z,97487
2018-03-30T19:57:00.000Z,97485
2018-03-30T20:02:00.000Z,97478
2018-03-30T20:07:00.000Z,97467
2018-03-30T20:12:00.000Z,97449
2018-03-30T20:17:00.000Z,97449
2018-03-30T20:22:00.000Z,97444
2018-03-30T20:27:00.000Z,97439
2018-03-30T20:32:00.000Z,97430
2018-03-30T20:37:00.000Z,97426
2018-03-30T20:42:00.000Z,97427
2018-03-30T20:47:00.000Z,97427
2018-03-30T20:52:00.000Z,97430
2018-03-30T20:57:00.000Z,97414
2018-03-30T21:02:00.000Z,97410
2018-03-30T21:07:00.000Z,97403
2018-03-30T21:12:00.000Z,97398
2018-03-30T21:17:00.000Z,97392
2018-03-30T21:22:00.000Z,97390
2018-03-30T21:27:00.000Z,97390
2018-03-30T21:32:00.000Z,97379
2018-03-30T21:37:00.000Z,97366
2018-03-30T21:42:00.000Z,97356
2018-03-30T21:47:00.000Z,97370
2018-03-30T21:52:00.000Z,97350
2018-03-30T21:57:00.000Z,97345
2018-03-30T22:02:00.000Z,97339
2018-03-30T22:07:00.000Z,97340
2018-03-30T22:12:00.000Z,97319
2018-03-30T22:17:00.000Z,97316
2018-03-30T22:22:00.000Z,97301
2018-03-30T22:27:00.000Z,97300
2018-03-30T22:32:00.000Z,97291
2018-03-30T22:37:00.000Z,97299
2018-03-30T22:42:00.000Z,97303
2018-03-30T22:47:00.000Z,97295
2018-03-30T22:52:00.000Z,97281
2018-03-30T22:57:00.000Z,97276
2018-03-30T23:02:00.000Z,97279
2018-03-30T23:07:00.000Z,97279
2018-03-30T23:12:00.000Z,97274
2018-03-30T23:17:00.000Z,97271
2018-03-30T23:22:00.000Z,97269
2018-03-30T23:27:00.000Z,97263
2018-03-30T23:32:00.000Z,97267
2018-03-30T23:37:00.000Z,97258
2018-03-30T23:42:00.000Z,97235
2018-03-30T23:47:00.000Z,97227
2018-03-30T23:52:00.000Z,97219
2018-03-30T23:57:00.000Z,97223
